sensor_id;sensor_type;location;lat;lon;timestamp;pressure;altitude;pressure_sealevel;temperature
79495;BMP180;68951;53.130;18.104;2023-05-07T00:00:36;101810.60;;;
79495;BMP180;68951;53.130;18.104;2023-05-07T00:03:19;101810.20;;;
79495;BMP180;68951;53.130;18.104;2023-05-07T00:05:46;101809.20;;;
79495;BMP180;68951;53.130;18.104;2023-05-07T00:08:13;101804.00;;;
79495;BMP180;68951;53.130;18.104;2023-05-07T00:10:41;101806.80;;;
79495;BMP180;68951;53.130;18.104;2023-05-07T00:13:07;101806.60;;;
79495;BMP180;68951;53.130;18.104;2023-05-07T00:15:34;101806.00;;;
79495;BMP180;68951;53.130;18.104;2023-05-07T00:18:01;101806.40;;;
79495;BMP180;68951;53.130;18.104;2023-05-07T00:20:28;101803.00;;;
79495;BMP180;68951;53.130;18.104;2023-05-07T00:22:55;101800.60;;;
79495;BMP180;68951;53.130;18.104;2023-05-07T00:25:22;101804.40;;;
79495;BMP180;68951;53.130;18.104;2023-05-07T00:27:49;101804.60;;;
79495;BMP180;68951;53.130;18.104;2023-05-07T00:30:16;101804.20;;;
79495;BMP180;68951;53.130;18.104;2023-05-07T00:32:42;101804.00;;;
79495;BMP180;68951;53.130;18.104;2023-05-07T00:35:12;101810.60;;;
79495;BMP180;68951;53.130;18.104;2023-05-07T00:37:39;101809.20;;;
79495;BMP180;68951;53.130;18.104;2023-05-07T00:40:07;101814.20;;;
79495;BMP180;68951;53.130;18.104;2023-05-07T00:42:34;101818.00;;;
79495;BMP180;68951;53.130;18.104;2023-05-07T00:45:01;101814.60;;;
79495;BMP180;68951;53.130;18.104;2023-05-07T00:47:28;101815.20;;;
79495;BMP180;68951;53.130;18.104;2023-05-07T00:49:57;101819.60;;;
79495;BMP180;68951;53.130;18.104;2023-05-07T00:52:26;101824.80;;;
79495;BMP180;68951;53.130;18.104;2023-05-07T00:54:53;101827.00;;;
79495;BMP180;68951;53.130;18.104;2023-05-07T00:57:23;101826.60;;;
79495;BMP180;68951;53.130;18.104;2023-05-07T00:59:51;101828.00;;;
79495;BMP180;68951;53.130;18.104;2023-05-07T01:02:18;101823.20;;;
79495;BMP180;68951;53.130;18.104;2023-05-07T01:04:45;101823.20;;;
79495;BMP180;68951;53.130;18.104;2023-05-07T01:07:12;101822.80;;;
79495;BMP180;68951;53.130;18.104;2023-05-07T01:09:40;101818.80;;;
79495;BMP180;68951;53.130;18.104;2023-05-07T01:12:07;101819.00;;;
79495;BMP180;68951;53.130;18.104;2023-05-07T01:14:35;101825.00;;;
79495;BMP180;68951;53.130;18.104;2023-05-07T01:17:01;101824.00;;;
79495;BMP180;68951;53.130;18.104;2023-05-07T01:19:29;101824.00;;;
79495;BMP180;68951;53.130;18.104;2023-05-07T01:22:05;101823.60;;;
79495;BMP180;68951;53.130;18.104;2023-05-07T01:24:35;101821.00;;;
79495;BMP180;68951;53.130;18.104;2023-05-07T01:27:03;101817.00;;;
79495;BMP180;68951;53.130;18.104;2023-05-07T01:29:30;101820.80;;;
79495;BMP180;68951;53.130;18.104;2023-05-07T01:32:00;101822.00;;;
79495;BMP180;68951;53.130;18.104;2023-05-07T01:34:30;101828.20;;;
79495;BMP180;68951;53.130;18.104;2023-05-07T01:36:59;101826.20;;;
79495;BMP180;68951;53.130;18.104;2023-05-07T01:39:28;101831.40;;;
79495;BMP180;68951;53.130;18.104;2023-05-07T01:41:55;101830.60;;;
79495;BMP180;68951;53.130;18.104;2023-05-07T01:44:23;101831.40;;;
79495;BMP180;68951;53.130;18.104;2023-05-07T01:46:51;101832.00;;;
79495;BMP180;68951;53.130;18.104;2023-05-07T01:49:18;101837.20;;;
79495;BMP180;68951;53.130;18.104;2023-05-07T01:51:46;101837.20;;;
79495;BMP180;68951;53.130;18.104;2023-05-07T01:54:13;101839.80;;;
79495;BMP180;68951;53.130;18.104;2023-05-07T01:56:41;101838.20;;;
79495;BMP180;68951;53.130;18.104;2023-05-07T01:59:07;101839.20;;;
79495;BMP180;68951;53.130;18.104;2023-05-07T02:01:34;101836.00;;;
79495;BMP180;68951;53.130;18.104;2023-05-07T02:04:01;101840.60;;;
79495;BMP180;68951;53.130;18.104;2023-05-07T02:06:28;101840.60;;;
79495;BMP180;68951;53.130;18.104;2023-05-07T02:08:55;101841.20;;;
79495;BMP180;68951;53.130;18.104;2023-05-07T02:11:21;101839.40;;;
79495;BMP180;68951;53.130;18.104;2023-05-07T02:13:48;101840.60;;;
79495;BMP180;68951;53.130;18.104;2023-05-07T02:16:15;101839.20;;;
79495;BMP180;68951;53.130;18.104;2023-05-07T02:18:42;101835.00;;;
79495;BMP180;68951;53.130;18.104;2023-05-07T02:21:09;101838.20;;;
79495;BMP180;68951;53.130;18.104;2023-05-07T02:23:36;101843.20;;;
79495;BMP180;68951;53.130;18.104;2023-05-07T02:26:04;101845.20;;;
79495;BMP180;68951;53.130;18.104;2023-05-07T02:28:31;101845.80;;;
79495;BMP180;68951;53.130;18.104;2023-05-07T02:30:58;101846.80;;;
79495;BMP180;68951;53.130;18.104;2023-05-07T02:33:26;101848.60;;;
79495;BMP180;68951;53.130;18.104;2023-05-07T02:35:53;101849.20;;;
79495;BMP180;68951;53.130;18.104;2023-05-07T02:38:19;101849.60;;;
79495;BMP180;68951;53.130;18.104;2023-05-07T02:40:46;101846.60;;;
79495;BMP180;68951;53.130;18.104;2023-05-07T02:43:13;101844.60;;;
79495;BMP180;68951;53.130;18.104;2023-05-07T02:45:40;101843.60;;;
79495;BMP180;68951;53.130;18.104;2023-05-07T02:48:07;101848.00;;;
79495;BMP180;68951;53.130;18.104;2023-05-07T02:50:34;101854.00;;;
79495;BMP180;68951;53.130;18.104;2023-05-07T02:53:01;101852.40;;;
79495;BMP180;68951;53.130;18.104;2023-05-07T02:55:28;101857.40;;;
79495;BMP180;68951;53.130;18.104;2023-05-07T02:57:54;101858.40;;;
79495;BMP180;68951;53.130;18.104;2023-05-07T03:00:22;101853.60;;;
79495;BMP180;68951;53.130;18.104;2023-05-07T03:02:48;101851.00;;;
79495;BMP180;68951;53.130;18.104;2023-05-07T03:05:15;101854.20;;;
79495;BMP180;68951;53.130;18.104;2023-05-07T03:07:42;101852.20;;;
79495;BMP180;68951;53.130;18.104;2023-05-07T03:10:11;101857.80;;;
79495;BMP180;68951;53.130;18.104;2023-05-07T03:12:39;101865.40;;;
79495;BMP180;68951;53.130;18.104;2023-05-07T03:15:07;101866.00;;;
79495;BMP180;68951;53.130;18.104;2023-05-07T03:17:34;101873.80;;;
79495;BMP180;68951;53.130;18.104;2023-05-07T03:20:01;101873.60;;;
79495;BMP180;68951;53.130;18.104;2023-05-07T03:22:28;101880.40;;;
79495;BMP180;68951;53.130;18.104;2023-05-07T03:24:55;101884.80;;;
79495;BMP180;68951;53.130;18.104;2023-05-07T03:27:21;101883.00;;;
79495;BMP180;68951;53.130;18.104;2023-05-07T03:29:48;101888.20;;;
79495;BMP180;68951;53.130;18.104;2023-05-07T03:32:15;101887.60;;;
79495;BMP180;68951;53.130;18.104;2023-05-07T03:34:42;101886.20;;;
79495;BMP180;68951;53.130;18.104;2023-05-07T03:37:09;101893.00;;;
79495;BMP180;68951;53.130;18.104;2023-05-07T03:39:36;101890.00;;;
79495;BMP180;68951;53.130;18.104;2023-05-07T03:42:03;101890.00;;;
79495;BMP180;68951;53.130;18.104;2023-05-07T03:44:30;101893.20;;;
79495;BMP180;68951;53.130;18.104;2023-05-07T03:46:56;101898.20;;;
79495;BMP180;68951;53.130;18.104;2023-05-07T03:49:23;101895.80;;;
79495;BMP180;68951;53.130;18.104;2023-05-07T03:51:50;101896.20;;;
79495;BMP180;68951;53.130;18.104;2023-05-07T03:54:17;101902.60;;;
79495;BMP180;68951;53.130;18.104;2023-05-07T03:56:43;101902.80;;;
79495;BMP180;68951;53.130;18.104;2023-05-07T03:59:14;101904.40;;;
79495;BMP180;68951;53.130;18.104;2023-05-07T04:01:41;101909.00;;;
79495;BMP180;68951;53.130;18.104;2023-05-07T04:04:08;101908.40;;;
79495;BMP180;68951;53.130;18.104;2023-05-07T04:06:35;101915.00;;;
79495;BMP180;68951;53.130;18.104;2023-05-07T04:09:02;101915.00;;;
79495;BMP180;68951;53.130;18.104;2023-05-07T04:11:29;101916.40;;;
79495;BMP180;68951;53.130;18.104;2023-05-07T04:13:55;101917.40;;;
79495;BMP180;68951;53.130;18.104;2023-05-07T04:16:22;101921.20;;;
79495;BMP180;68951;53.130;18.104;2023-05-07T04:18:49;101925.60;;;
79495;BMP180;68951;53.130;18.104;2023-05-07T04:21:18;101931.00;;;
79495;BMP180;68951;53.130;18.104;2023-05-07T04:23:46;101933.80;;;
79495;BMP180;68951;53.130;18.104;2023-05-07T04:26:14;101940.80;;;
79495;BMP180;68951;53.130;18.104;2023-05-07T04:28:42;101938.20;;;
79495;BMP180;68951;53.130;18.104;2023-05-07T04:31:09;101944.20;;;
79495;BMP180;68951;53.130;18.104;2023-05-07T04:33:36;101943.40;;;
79495;BMP180;68951;53.130;18.104;2023-05-07T04:36:03;101950.40;;;
79495;BMP180;68951;53.130;18.104;2023-05-07T04:38:31;101948.40;;;
79495;BMP180;68951;53.130;18.104;2023-05-07T04:41:05;101946.80;;;
79495;BMP180;68951;53.130;18.104;2023-05-07T04:43:33;101947.40;;;
79495;BMP180;68951;53.130;18.104;2023-05-07T04:45:59;101953.20;;;
79495;BMP180;68951;53.130;18.104;2023-05-07T04:48:26;101960.80;;;
79495;BMP180;68951;53.130;18.104;2023-05-07T04:50:53;101958.60;;;
79495;BMP180;68951;53.130;18.104;2023-05-07T04:53:21;101967.40;;;
79495;BMP180;68951;53.130;18.104;2023-05-07T04:55:48;101970.00;;;
79495;BMP180;68951;53.130;18.104;2023-05-07T04:58:15;101971.80;;;
79495;BMP180;68951;53.130;18.104;2023-05-07T05:00:42;101978.40;;;
79495;BMP180;68951;53.130;18.104;2023-05-07T05:03:09;101975.40;;;
79495;BMP180;68951;53.130;18.104;2023-05-07T05:05:35;101977.40;;;
79495;BMP180;68951;53.130;18.104;2023-05-07T05:08:03;101980.00;;;
79495;BMP180;68951;53.130;18.104;2023-05-07T05:10:29;101984.60;;;
79495;BMP180;68951;53.130;18.104;2023-05-07T05:12:56;101978.80;;;
79495;BMP180;68951;53.130;18.104;2023-05-07T05:15:23;101982.00;;;
79495;BMP180;68951;53.130;18.104;2023-05-07T05:17:50;101991.20;;;
79495;BMP180;68951;53.130;18.104;2023-05-07T05:20:17;101992.40;;;
79495;BMP180;68951;53.130;18.104;2023-05-07T05:22:44;102001.60;;;
79495;BMP180;68951;53.130;18.104;2023-05-07T05:25:11;101999.80;;;
79495;BMP180;68951;53.130;18.104;2023-05-07T05:27:38;102003.00;;;
79495;BMP180;68951;53.130;18.104;2023-05-07T05:30:05;102000.80;;;
79495;BMP180;68951;53.130;18.104;2023-05-07T05:32:32;101996.00;;;
79495;BMP180;68951;53.130;18.104;2023-05-07T05:34:59;101997.60;;;
79495;BMP180;68951;53.130;18.104;2023-05-07T05:37:26;102002.80;;;
79495;BMP180;68951;53.130;18.104;2023-05-07T05:39:53;102010.20;;;
79495;BMP180;68951;53.130;18.104;2023-05-07T05:42:21;102011.40;;;
79495;BMP180;68951;53.130;18.104;2023-05-07T05:44:49;102011.00;;;
79495;BMP180;68951;53.130;18.104;2023-05-07T05:47:16;102011.20;;;
79495;BMP180;68951;53.130;18.104;2023-05-07T05:49:42;102007.00;;;
79495;BMP180;68951;53.130;18.104;2023-05-07T05:52:12;102011.80;;;
79495;BMP180;68951;53.130;18.104;2023-05-07T05:54:40;102014.20;;;
79495;BMP180;68951;53.130;18.104;2023-05-07T05:57:07;102018.20;;;
79495;BMP180;68951;53.130;18.104;2023-05-07T05:59:34;102017.20;;;
79495;BMP180;68951;53.130;18.104;2023-05-07T06:02:01;102021.60;;;
79495;BMP180;68951;53.130;18.104;2023-05-07T06:04:27;102023.20;;;
79495;BMP180;68951;53.130;18.104;2023-05-07T06:06:54;102024.20;;;
79495;BMP180;68951;53.130;18.104;2023-05-07T06:09:21;102023.40;;;
79495;BMP180;68951;53.130;18.104;2023-05-07T06:11:48;102023.20;;;
79495;BMP180;68951;53.130;18.104;2023-05-07T06:14:15;102026.00;;;
79495;BMP180;68951;53.130;18.104;2023-05-07T06:16:42;102025.20;;;
79495;BMP180;68951;53.130;18.104;2023-05-07T06:19:09;102022.20;;;
79495;BMP180;68951;53.130;18.104;2023-05-07T06:21:36;102028.80;;;
79495;BMP180;68951;53.130;18.104;2023-05-07T06:24:02;102033.20;;;
79495;BMP180;68951;53.130;18.104;2023-05-07T06:26:29;102030.60;;;
79495;BMP180;68951;53.130;18.104;2023-05-07T06:28:56;102033.60;;;
79495;BMP180;68951;53.130;18.104;2023-05-07T06:31:28;102031.60;;;
79495;BMP180;68951;53.130;18.104;2023-05-07T06:33:55;102034.40;;;
79495;BMP180;68951;53.130;18.104;2023-05-07T06:36:22;102038.40;;;
79495;BMP180;68951;53.130;18.104;2023-05-07T06:38:49;102034.80;;;
79495;BMP180;68951;53.130;18.104;2023-05-07T06:41:16;102037.20;;;
79495;BMP180;68951;53.130;18.104;2023-05-07T06:43:43;102037.40;;;
79495;BMP180;68951;53.130;18.104;2023-05-07T06:46:09;102040.80;;;
79495;BMP180;68951;53.130;18.104;2023-05-07T06:48:36;102039.40;;;
79495;BMP180;68951;53.130;18.104;2023-05-07T06:51:03;102040.80;;;
79495;BMP180;68951;53.130;18.104;2023-05-07T06:53:30;102045.60;;;
79495;BMP180;68951;53.130;18.104;2023-05-07T06:55:57;102045.20;;;
79495;BMP180;68951;53.130;18.104;2023-05-07T06:58:24;102050.40;;;
79495;BMP180;68951;53.130;18.104;2023-05-07T07:00:51;102052.40;;;
79495;BMP180;68951;53.130;18.104;2023-05-07T07:03:18;102051.20;;;
79495;BMP180;68951;53.130;18.104;2023-05-07T07:05:45;102056.60;;;
79495;BMP180;68951;53.130;18.104;2023-05-07T07:08:12;102060.20;;;
79495;BMP180;68951;53.130;18.104;2023-05-07T07:10:39;102065.00;;;
79495;BMP180;68951;53.130;18.104;2023-05-07T07:13:06;102071.20;;;
79495;BMP180;68951;53.130;18.104;2023-05-07T07:15:33;102071.80;;;
79495;BMP180;68951;53.130;18.104;2023-05-07T07:18:00;102070.20;;;
79495;BMP180;68951;53.130;18.104;2023-05-07T07:20:26;102069.00;;;
79495;BMP180;68951;53.130;18.104;2023-05-07T07:22:53;102069.40;;;
79495;BMP180;68951;53.130;18.104;2023-05-07T07:25:20;102071.00;;;
79495;BMP180;68951;53.130;18.104;2023-05-07T07:27:47;102070.20;;;
79495;BMP180;68951;53.130;18.104;2023-05-07T07:30:14;102073.60;;;
79495;BMP180;68951;53.130;18.104;2023-05-07T07:32:41;102067.80;;;
79495;BMP180;68951;53.130;18.104;2023-05-07T07:35:09;102066.80;;;
79495;BMP180;68951;53.130;18.104;2023-05-07T07:37:36;102070.80;;;
79495;BMP180;68951;53.130;18.104;2023-05-07T07:40:04;102068.20;;;
79495;BMP180;68951;53.130;18.104;2023-05-07T07:42:31;102067.80;;;
79495;BMP180;68951;53.130;18.104;2023-05-07T07:44:58;102066.80;;;
79495;BMP180;68951;53.130;18.104;2023-05-07T07:47:25;102070.20;;;
79495;BMP180;68951;53.130;18.104;2023-05-07T07:49:52;102074.00;;;
79495;BMP180;68951;53.130;18.104;2023-05-07T07:52:18;102074.00;;;
79495;BMP180;68951;53.130;18.104;2023-05-07T07:54:45;102078.40;;;
79495;BMP180;68951;53.130;18.104;2023-05-07T07:57:12;102077.80;;;
79495;BMP180;68951;53.130;18.104;2023-05-07T07:59:39;102072.80;;;
79495;BMP180;68951;53.130;18.104;2023-05-07T08:02:06;102081.00;;;
79495;BMP180;68951;53.130;18.104;2023-05-07T08:04:33;102080.00;;;
79495;BMP180;68951;53.130;18.104;2023-05-07T08:07:00;102079.80;;;
79495;BMP180;68951;53.130;18.104;2023-05-07T08:09:27;102081.40;;;
79495;BMP180;68951;53.130;18.104;2023-05-07T08:11:54;102084.80;;;
79495;BMP180;68951;53.130;18.104;2023-05-07T08:14:21;102087.40;;;
79495;BMP180;68951;53.130;18.104;2023-05-07T08:16:48;102088.20;;;
79495;BMP180;68951;53.130;18.104;2023-05-07T08:19:15;102090.60;;;
79495;BMP180;68951;53.130;18.104;2023-05-07T08:21:42;102085.20;;;
79495;BMP180;68951;53.130;18.104;2023-05-07T08:24:09;102085.80;;;
79495;BMP180;68951;53.130;18.104;2023-05-07T08:26:36;102093.00;;;
79495;BMP180;68951;53.130;18.104;2023-05-07T08:29:06;102091.20;;;
79495;BMP180;68951;53.130;18.104;2023-05-07T08:31:33;102088.20;;;
79495;BMP180;68951;53.130;18.104;2023-05-07T08:34:00;102091.80;;;
79495;BMP180;68951;53.130;18.104;2023-05-07T08:36:26;102092.00;;;
79495;BMP180;68951;53.130;18.104;2023-05-07T08:38:55;102089.60;;;
79495;BMP180;68951;53.130;18.104;2023-05-07T08:41:22;102091.60;;;
79495;BMP180;68951;53.130;18.104;2023-05-07T08:43:50;102097.00;;;
79495;BMP180;68951;53.130;18.104;2023-05-07T08:46:21;102098.80;;;
79495;BMP180;68951;53.130;18.104;2023-05-07T08:48:49;102102.60;;;
79495;BMP180;68951;53.130;18.104;2023-05-07T08:51:21;102106.00;;;
79495;BMP180;68951;53.130;18.104;2023-05-07T08:53:49;102103.40;;;
79495;BMP180;68951;53.130;18.104;2023-05-07T08:56:17;102110.40;;;
79495;BMP180;68951;53.130;18.104;2023-05-07T08:58:44;102109.40;;;
79495;BMP180;68951;53.130;18.104;2023-05-07T09:01:16;102110.40;;;
79495;BMP180;68951;53.130;18.104;2023-05-07T09:03:47;102110.60;;;
79495;BMP180;68951;53.130;18.104;2023-05-07T09:06:14;102110.80;;;
79495;BMP180;68951;53.130;18.104;2023-05-07T09:08:49;102113.20;;;
79495;BMP180;68951;53.130;18.104;2023-05-07T09:11:21;102123.80;;;
79495;BMP180;68951;53.130;18.104;2023-05-07T09:13:52;102120.40;;;
79495;BMP180;68951;53.130;18.104;2023-05-07T09:16:21;102127.20;;;
79495;BMP180;68951;53.130;18.104;2023-05-07T09:18:52;102120.20;;;
79495;BMP180;68951;53.130;18.104;2023-05-07T09:21:21;102120.40;;;
79495;BMP180;68951;53.130;18.104;2023-05-07T09:23:54;102122.00;;;
79495;BMP180;68951;53.130;18.104;2023-05-07T09:26:23;102125.60;;;
79495;BMP180;68951;53.130;18.104;2023-05-07T09:28:51;102121.00;;;
79495;BMP180;68951;53.130;18.104;2023-05-07T09:31:18;102124.40;;;
79495;BMP180;68951;53.130;18.104;2023-05-07T09:33:46;102118.80;;;
79495;BMP180;68951;53.130;18.104;2023-05-07T09:36:13;102121.00;;;
79495;BMP180;68951;53.130;18.104;2023-05-07T09:38:41;102124.00;;;
79495;BMP180;68951;53.130;18.104;2023-05-07T09:41:11;102129.00;;;
79495;BMP180;68951;53.130;18.104;2023-05-07T09:43:39;102135.80;;;
79495;BMP180;68951;53.130;18.104;2023-05-07T09:46:14;102128.00;;;
79495;BMP180;68951;53.130;18.104;2023-05-07T09:48:43;102126.00;;;
79495;BMP180;68951;53.130;18.104;2023-05-07T09:51:29;102137.40;;;
79495;BMP180;68951;53.130;18.104;2023-05-07T09:53:57;102129.80;;;
79495;BMP180;68951;53.130;18.104;2023-05-07T09:56:28;102137.80;;;
79495;BMP180;68951;53.130;18.104;2023-05-07T09:59:00;102142.60;;;
79495;BMP180;68951;53.130;18.104;2023-05-07T10:01:27;102152.80;;;
79495;BMP180;68951;53.130;18.104;2023-05-07T10:03:55;102155.20;;;
79495;BMP180;68951;53.130;18.104;2023-05-07T10:06:25;102155.20;;;
79495;BMP180;68951;53.130;18.104;2023-05-07T10:08:55;102161.60;;;
79495;BMP180;68951;53.130;18.104;2023-05-07T10:11:22;102163.20;;;
79495;BMP180;68951;53.130;18.104;2023-05-07T10:13:52;102165.40;;;
79495;BMP180;68951;53.130;18.104;2023-05-07T10:16:20;102165.80;;;
79495;BMP180;68951;53.130;18.104;2023-05-07T10:18:47;102167.80;;;
79495;BMP180;68951;53.130;18.104;2023-05-07T10:21:21;102164.20;;;
79495;BMP180;68951;53.130;18.104;2023-05-07T10:23:53;102165.40;;;
79495;BMP180;68951;53.130;18.104;2023-05-07T10:26:25;102169.80;;;
79495;BMP180;68951;53.130;18.104;2023-05-07T10:29:04;102166.60;;;
79495;BMP180;68951;53.130;18.104;2023-05-07T10:31:57;102160.80;;;
79495;BMP180;68951;53.130;18.104;2023-05-07T10:34:34;102163.80;;;
79495;BMP180;68951;53.130;18.104;2023-05-07T10:37:03;102158.60;;;
79495;BMP180;68951;53.130;18.104;2023-05-07T10:39:31;102165.20;;;
79495;BMP180;68951;53.130;18.104;2023-05-07T10:42:08;102167.20;;;
79495;BMP180;68951;53.130;18.104;2023-05-07T10:44:36;102166.80;;;
79495;BMP180;68951;53.130;18.104;2023-05-07T10:47:10;102167.80;;;
79495;BMP180;68951;53.130;18.104;2023-05-07T10:52:22;102165.60;;;
79495;BMP180;68951;53.130;18.104;2023-05-07T10:57:44;102170.80;;;
79495;BMP180;68951;53.130;18.104;2023-05-07T11:05:32;102167.00;;;
79495;BMP180;68951;53.130;18.104;2023-05-07T11:08:02;102171.00;;;
79495;BMP180;68951;53.130;18.104;2023-05-07T11:10:56;102172.60;;;
79495;BMP180;68951;53.130;18.104;2023-05-07T11:13:48;102175.60;;;
79495;BMP180;68951;53.130;18.104;2023-05-07T11:16:24;102187.40;;;
79495;BMP180;68951;53.130;18.104;2023-05-07T11:18:54;102183.00;;;
79495;BMP180;68951;53.130;18.104;2023-05-07T11:21:41;102184.80;;;
79495;BMP180;68951;53.130;18.104;2023-05-07T11:24:10;102187.40;;;
79495;BMP180;68951;53.130;18.104;2023-05-07T11:26:48;102185.40;;;
79495;BMP180;68951;53.130;18.104;2023-05-07T11:29:21;102182.40;;;
79495;BMP180;68951;53.130;18.104;2023-05-07T11:31:51;102188.60;;;
79495;BMP180;68951;53.130;18.104;2023-05-07T11:34:24;102182.00;;;
79495;BMP180;68951;53.130;18.104;2023-05-07T11:36:54;102186.80;;;
79495;BMP180;68951;53.130;18.104;2023-05-07T11:39:30;102185.60;;;
79495;BMP180;68951;53.130;18.104;2023-05-07T11:42:00;102182.20;;;
79495;BMP180;68951;53.130;18.104;2023-05-07T11:44:44;102180.20;;;
79495;BMP180;68951;53.130;18.104;2023-05-07T11:47:18;102175.00;;;
79495;BMP180;68951;53.130;18.104;2023-05-07T11:49:50;102178.80;;;
79495;BMP180;68951;53.130;18.104;2023-05-07T11:52:19;102181.20;;;
79495;BMP180;68951;53.130;18.104;2023-05-07T11:54:55;102186.40;;;
79495;BMP180;68951;53.130;18.104;2023-05-07T11:57:26;102192.40;;;
79495;BMP180;68951;53.130;18.104;2023-05-07T11:59:58;102183.00;;;
79495;BMP180;68951;53.130;18.104;2023-05-07T12:02:26;102179.60;;;
79495;BMP180;68951;53.130;18.104;2023-05-07T12:04:54;102189.40;;;
79495;BMP180;68951;53.130;18.104;2023-05-07T12:07:21;102194.40;;;
79495;BMP180;68951;53.130;18.104;2023-05-07T12:09:50;102194.00;;;
79495;BMP180;68951;53.130;18.104;2023-05-07T12:12:17;102201.00;;;
79495;BMP180;68951;53.130;18.104;2023-05-07T12:14:46;102191.80;;;
79495;BMP180;68951;53.130;18.104;2023-05-07T12:17:14;102198.00;;;
79495;BMP180;68951;53.130;18.104;2023-05-07T12:19:43;102196.40;;;
79495;BMP180;68951;53.130;18.104;2023-05-07T12:22:11;102194.00;;;
79495;BMP180;68951;53.130;18.104;2023-05-07T12:24:50;102200.80;;;
79495;BMP180;68951;53.130;18.104;2023-05-07T12:27:23;102200.60;;;
79495;BMP180;68951;53.130;18.104;2023-05-07T12:29:50;102200.20;;;
79495;BMP180;68951;53.130;18.104;2023-05-07T12:32:21;102200.00;;;
79495;BMP180;68951;53.130;18.104;2023-05-07T12:34:51;102199.20;;;
79495;BMP180;68951;53.130;18.104;2023-05-07T12:37:24;102200.60;;;
79495;BMP180;68951;53.130;18.104;2023-05-07T12:40:10;102199.80;;;
79495;BMP180;68951;53.130;18.104;2023-05-07T12:42:40;102197.00;;;
79495;BMP180;68951;53.130;18.104;2023-05-07T12:45:15;102196.00;;;
79495;BMP180;68951;53.130;18.104;2023-05-07T12:47:46;102202.40;;;
79495;BMP180;68951;53.130;18.104;2023-05-07T12:50:16;102196.80;;;
79495;BMP180;68951;53.130;18.104;2023-05-07T12:52:45;102201.20;;;
79495;BMP180;68951;53.130;18.104;2023-05-07T12:55:17;102205.00;;;
79495;BMP180;68951;53.130;18.104;2023-05-07T12:57:48;102205.60;;;
79495;BMP180;68951;53.130;18.104;2023-05-07T13:00:16;102203.60;;;
79495;BMP180;68951;53.130;18.104;2023-05-07T13:02:44;102201.80;;;
79495;BMP180;68951;53.130;18.104;2023-05-07T13:05:11;102209.20;;;
79495;BMP180;68951;53.130;18.104;2023-05-07T13:07:39;102210.40;;;
79495;BMP180;68951;53.130;18.104;2023-05-07T13:10:07;102212.00;;;
79495;BMP180;68951;53.130;18.104;2023-05-07T13:12:35;102201.20;;;
79495;BMP180;68951;53.130;18.104;2023-05-07T13:15:02;102206.20;;;
79495;BMP180;68951;53.130;18.104;2023-05-07T13:17:29;102196.80;;;
79495;BMP180;68951;53.130;18.104;2023-05-07T13:19:57;102201.80;;;
79495;BMP180;68951;53.130;18.104;2023-05-07T13:22:24;102206.00;;;
79495;BMP180;68951;53.130;18.104;2023-05-07T13:24:51;102200.20;;;
79495;BMP180;68951;53.130;18.104;2023-05-07T13:27:18;102197.80;;;
79495;BMP180;68951;53.130;18.104;2023-05-07T13:29:46;102200.80;;;
79495;BMP180;68951;53.130;18.104;2023-05-07T13:32:13;102198.00;;;
79495;BMP180;68951;53.130;18.104;2023-05-07T13:34:39;102196.20;;;
79495;BMP180;68951;53.130;18.104;2023-05-07T13:37:06;102194.20;;;
79495;BMP180;68951;53.130;18.104;2023-05-07T13:39:34;102189.60;;;
79495;BMP180;68951;53.130;18.104;2023-05-07T13:42:01;102186.80;;;
79495;BMP180;68951;53.130;18.104;2023-05-07T13:44:28;102189.00;;;
79495;BMP180;68951;53.130;18.104;2023-05-07T13:46:56;102192.80;;;
79495;BMP180;68951;53.130;18.104;2023-05-07T13:49:22;102194.00;;;
79495;BMP180;68951;53.130;18.104;2023-05-07T13:51:50;102195.20;;;
79495;BMP180;68951;53.130;18.104;2023-05-07T13:54:17;102197.20;;;
79495;BMP180;68951;53.130;18.104;2023-05-07T13:56:44;102196.80;;;
79495;BMP180;68951;53.130;18.104;2023-05-07T13:59:11;102195.40;;;
79495;BMP180;68951;53.130;18.104;2023-05-07T14:01:40;102194.40;;;
79495;BMP180;68951;53.130;18.104;2023-05-07T14:04:07;102194.00;;;
79495;BMP180;68951;53.130;18.104;2023-05-07T14:06:34;102190.80;;;
79495;BMP180;68951;53.130;18.104;2023-05-07T14:09:01;102192.20;;;
79495;BMP180;68951;53.130;18.104;2023-05-07T14:11:28;102187.40;;;
79495;BMP180;68951;53.130;18.104;2023-05-07T14:13:55;102187.00;;;
79495;BMP180;68951;53.130;18.104;2023-05-07T14:16:23;102191.00;;;
79495;BMP180;68951;53.130;18.104;2023-05-07T14:18:50;102187.40;;;
79495;BMP180;68951;53.130;18.104;2023-05-07T14:21:17;102188.40;;;
79495;BMP180;68951;53.130;18.104;2023-05-07T14:23:44;102182.20;;;
79495;BMP180;68951;53.130;18.104;2023-05-07T14:26:11;102173.60;;;
79495;BMP180;68951;53.130;18.104;2023-05-07T14:28:38;102176.20;;;
79495;BMP180;68951;53.130;18.104;2023-05-07T14:31:06;102182.20;;;
79495;BMP180;68951;53.130;18.104;2023-05-07T14:33:33;102178.20;;;
79495;BMP180;68951;53.130;18.104;2023-05-07T14:36:00;102177.60;;;
79495;BMP180;68951;53.130;18.104;2023-05-07T14:38:27;102178.60;;;
79495;BMP180;68951;53.130;18.104;2023-05-07T14:40:54;102176.00;;;
79495;BMP180;68951;53.130;18.104;2023-05-07T14:43:23;102175.60;;;
79495;BMP180;68951;53.130;18.104;2023-05-07T14:45:50;102179.40;;;
79495;BMP180;68951;53.130;18.104;2023-05-07T14:48:17;102182.20;;;
79495;BMP180;68951;53.130;18.104;2023-05-07T14:50:47;102181.00;;;
79495;BMP180;68951;53.130;18.104;2023-05-07T14:53:15;102169.60;;;
79495;BMP180;68951;53.130;18.104;2023-05-07T14:55:42;102175.80;;;
79495;BMP180;68951;53.130;18.104;2023-05-07T14:58:11;102175.40;;;
79495;BMP180;68951;53.130;18.104;2023-05-07T15:00:38;102177.00;;;
79495;BMP180;68951;53.130;18.104;2023-05-07T15:03:10;102177.60;;;
79495;BMP180;68951;53.130;18.104;2023-05-07T15:05:37;102174.60;;;